sensor_id;sensor_type;location;lat;lon;timestamp;temperature;humidity
71291;DHT22;59073;51.994;4.448;2023-06-24T00:02:11;19.45;63.28
71291;DHT22;59073;51.994;4.448;2023-06-24T00:04:37;19.42;63.68
71291;DHT22;59073;51.994;4.448;2023-06-24T00:07:02;19.39;64.25
71291;DHT22;59073;51.994;4.448;2023-06-24T00:09:28;19.37;64.66
71291;DHT22;59073;51.994;4.448;2023-06-24T00:11:54;19.40;65.14
71291;DHT22;59073;51.994;4.448;2023-06-24T00:14:21;19.34;64.63
71291;DHT22;59073;51.994;4.448;2023-06-24T00:16:47;19.32;64.98
71291;DHT22;59073;51.994;4.448;2023-06-24T00:19:21;19.29;65.01
71291;DHT22;59073;51.994;4.448;2023-06-24T00:21:49;19.22;64.81
71291;DHT22;59073;51.994;4.448;2023-06-24T00:24:17;19.20;65.05
71291;DHT22;59073;51.994;4.448;2023-06-24T00:26:43;19.20;65.41
71291;DHT22;59073;51.994;4.448;2023-06-24T00:29:08;19.20;66.47
71291;DHT22;59073;51.994;4.448;2023-06-24T00:31:33;19.15;67.01
71291;DHT22;59073;51.994;4.448;2023-06-24T00:33:59;19.06;67.42
71291;DHT22;59073;51.994;4.448;2023-06-24T00:36:24;19.01;67.52
71291;DHT22;59073;51.994;4.448;2023-06-24T00:38:50;19.05;67.53
71291;DHT22;59073;51.994;4.448;2023-06-24T00:41:19;19.03;67.29
71291;DHT22;59073;51.994;4.448;2023-06-24T00:43:45;19.01;67.37
71291;DHT22;59073;51.994;4.448;2023-06-24T00:46:11;19.01;67.40
71291;DHT22;59073;51.994;4.448;2023-06-24T00:48:37;18.96;67.67
71291;DHT22;59073;51.994;4.448;2023-06-24T00:51:03;18.91;68.14
71291;DHT22;59073;51.994;4.448;2023-06-24T00:53:28;18.79;68.64
71291;DHT22;59073;51.994;4.448;2023-06-24T00:55:55;18.78;69.02
71291;DHT22;59073;51.994;4.448;2023-06-24T00:58:28;18.74;69.06
71291;DHT22;59073;51.994;4.448;2023-06-24T01:00:57;18.69;69.21
71291;DHT22;59073;51.994;4.448;2023-06-24T01:03:26;18.71;68.90
71291;DHT22;59073;51.994;4.448;2023-06-24T01:05:56;18.76;68.95
71291;DHT22;59073;51.994;4.448;2023-06-24T01:08:21;18.79;68.95
71291;DHT22;59073;51.994;4.448;2023-06-24T01:10:49;18.82;69.02
71291;DHT22;59073;51.994;4.448;2023-06-24T01:13:16;18.79;69.46
71291;DHT22;59073;51.994;4.448;2023-06-24T01:15:41;18.78;69.46
71291;DHT22;59073;51.994;4.448;2023-06-24T01:18:08;18.75;69.69
71291;DHT22;59073;51.994;4.448;2023-06-24T01:23:55;18.65;70.00
71291;DHT22;59073;51.994;4.448;2023-06-24T01:29:56;18.41;70.27
71291;DHT22;59073;51.994;4.448;2023-06-24T01:32:33;18.45;70.30
71291;DHT22;59073;51.994;4.448;2023-06-24T01:35:12;18.50;70.25
71291;DHT22;59073;51.994;4.448;2023-06-24T01:37:44;18.48;70.46
71291;DHT22;59073;51.994;4.448;2023-06-24T01:40:15;18.51;70.41
71291;DHT22;59073;51.994;4.448;2023-06-24T01:42:45;18.60;70.24
71291;DHT22;59073;51.994;4.448;2023-06-24T01:45:41;18.65;70.23
71291;DHT22;59073;51.994;4.448;2023-06-24T01:48:14;18.67;70.05
71291;DHT22;59073;51.994;4.448;2023-06-24T01:50:44;18.65;70.01
71291;DHT22;59073;51.994;4.448;2023-06-24T01:53:11;18.67;69.97
71291;DHT22;59073;51.994;4.448;2023-06-24T01:55:41;18.61;70.07
71291;DHT22;59073;51.994;4.448;2023-06-24T01:58:09;18.61;70.21
71291;DHT22;59073;51.994;4.448;2023-06-24T02:00:38;18.65;70.64
71291;DHT22;59073;51.994;4.448;2023-06-24T02:03:05;18.71;70.99
71291;DHT22;59073;51.994;4.448;2023-06-24T02:05:34;18.79;71.03
71291;DHT22;59073;51.994;4.448;2023-06-24T02:08:03;18.75;70.98
71291;DHT22;59073;51.994;4.448;2023-06-24T02:10:30;18.72;71.21
71291;DHT22;59073;51.994;4.448;2023-06-24T02:12:56;18.75;71.08
71291;DHT22;59073;51.994;4.448;2023-06-24T02:15:23;18.72;71.23
71291;DHT22;59073;51.994;4.448;2023-06-24T02:17:51;18.71;71.18
71291;DHT22;59073;51.994;4.448;2023-06-24T02:20:19;18.54;70.85
71291;DHT22;59073;51.994;4.448;2023-06-24T02:22:47;18.44;71.49
71291;DHT22;59073;51.994;4.448;2023-06-24T02:25:14;18.50;71.39
71291;DHT22;59073;51.994;4.448;2023-06-24T02:27:40;18.52;71.35
71291;DHT22;59073;51.994;4.448;2023-06-24T02:30:08;18.65;71.64
71291;DHT22;59073;51.994;4.448;2023-06-24T02:32:34;18.65;71.60
71291;DHT22;59073;51.994;4.448;2023-06-24T02:35:03;18.60;71.45
71291;DHT22;59073;51.994;4.448;2023-06-24T02:37:30;18.55;71.70
71291;DHT22;59073;51.994;4.448;2023-06-24T02:39:56;18.43;71.74
71291;DHT22;59073;51.994;4.448;2023-06-24T02:42:22;18.45;72.13
71291;DHT22;59073;51.994;4.448;2023-06-24T02:44:48;18.50;72.32
71291;DHT22;59073;51.994;4.448;2023-06-24T02:47:16;18.54;72.54
71291;DHT22;59073;51.994;4.448;2023-06-24T02:49:44;18.57;73.12
71291;DHT22;59073;51.994;4.448;2023-06-24T02:52:15;18.55;73.86
71291;DHT22;59073;51.994;4.448;2023-06-24T02:54:41;18.50;73.28
71291;DHT22;59073;51.994;4.448;2023-06-24T02:57:08;18.34;73.34
71291;DHT22;59073;51.994;4.448;2023-06-24T02:59:34;18.21;73.66
71291;DHT22;59073;51.994;4.448;2023-06-24T03:02:00;18.24;73.85
71291;DHT22;59073;51.994;4.448;2023-06-24T03:04:26;18.29;74.04
71291;DHT22;59073;51.994;4.448;2023-06-24T03:06:52;18.37;74.12
71291;DHT22;59073;51.994;4.448;2023-06-24T03:09:18;18.40;74.08
71291;DHT22;59073;51.994;4.448;2023-06-24T03:11:44;18.37;74.23
71291;DHT22;59073;51.994;4.448;2023-06-24T03:14:10;18.30;74.45
71291;DHT22;59073;51.994;4.448;2023-06-24T03:16:36;18.23;74.33
71291;DHT22;59073;51.994;4.448;2023-06-24T03:19:04;18.18;74.84
71291;DHT22;59073;51.994;4.448;2023-06-24T03:21:29;18.27;74.86
71291;DHT22;59073;51.994;4.448;2023-06-24T03:23:55;18.27;75.50
71291;DHT22;59073;51.994;4.448;2023-06-24T03:26:20;18.29;75.63
71291;DHT22;59073;51.994;4.448;2023-06-24T03:28:46;18.29;75.44
71291;DHT22;59073;51.994;4.448;2023-06-24T03:31:12;18.21;75.30
71291;DHT22;59073;51.994;4.448;2023-06-24T03:33:40;18.21;75.25
71291;DHT22;59073;51.994;4.448;2023-06-24T03:36:10;18.24;75.29
71291;DHT22;59073;51.994;4.448;2023-06-24T03:38:35;18.26;75.75
71291;DHT22;59073;51.994;4.448;2023-06-24T03:41:01;18.31;75.88
71291;DHT22;59073;51.994;4.448;2023-06-24T03:43:26;18.30;75.70
71291;DHT22;59073;51.994;4.448;2023-06-24T03:45:52;18.33;75.81
71291;DHT22;59073;51.994;4.448;2023-06-24T03:48:18;18.40;75.71
71291;DHT22;59073;51.994;4.448;2023-06-24T03:50:43;18.44;75.16
71291;DHT22;59073;51.994;4.448;2023-06-24T03:53:08;18.45;74.93
71291;DHT22;59073;51.994;4.448;2023-06-24T03:55:34;18.36;75.08
71291;DHT22;59073;51.994;4.448;2023-06-24T03:57:59;18.38;75.14
71291;DHT22;59073;51.994;4.448;2023-06-24T04:00:25;18.50;75.21
71291;DHT22;59073;51.994;4.448;2023-06-24T04:02:50;18.88;75.07
71291;DHT22;59073;51.994;4.448;2023-06-24T04:05:17;19.34;74.21
71291;DHT22;59073;51.994;4.448;2023-06-24T04:07:42;19.81;73.23
71291;DHT22;59073;51.994;4.448;2023-06-24T04:10:12;20.32;71.28
71291;DHT22;59073;51.994;4.448;2023-06-24T04:12:38;20.77;70.02
71291;DHT22;59073;51.994;4.448;2023-06-24T04:15:05;20.84;69.21
71291;DHT22;59073;51.994;4.448;2023-06-24T04:17:31;21.06;69.12
71291;DHT22;59073;51.994;4.448;2023-06-24T04:19:57;21.50;67.74
71291;DHT22;59073;51.994;4.448;2023-06-24T04:22:24;21.88;66.05
71291;DHT22;59073;51.994;4.448;2023-06-24T04:24:49;22.28;65.24
71291;DHT22;59073;51.994;4.448;2023-06-24T04:27:15;22.81;64.27
71291;DHT22;59073;51.994;4.448;2023-06-24T04:29:40;23.15;63.23
71291;DHT22;59073;51.994;4.448;2023-06-24T04:32:06;23.53;61.74
71291;DHT22;59073;51.994;4.448;2023-06-24T04:34:31;23.70;60.93
71291;DHT22;59073;51.994;4.448;2023-06-24T04:36:57;23.74;61.13
71291;DHT22;59073;51.994;4.448;2023-06-24T04:39:23;23.93;60.55
71291;DHT22;59073;51.994;4.448;2023-06-24T04:41:48;23.92;60.29
71291;DHT22;59073;51.994;4.448;2023-06-24T04:44:13;23.89;60.86
71291;DHT22;59073;51.994;4.448;2023-06-24T04:46:39;23.99;60.63
71291;DHT22;59073;51.994;4.448;2023-06-24T04:49:06;23.99;60.74
71291;DHT22;59073;51.994;4.448;2023-06-24T04:51:31;24.52;59.46
71291;DHT22;59073;51.994;4.448;2023-06-24T04:53:57;24.85;59.37
71291;DHT22;59073;51.994;4.448;2023-06-24T04:56:23;24.91;58.49
71291;DHT22;59073;51.994;4.448;2023-06-24T04:58:48;25.10;58.43
71291;DHT22;59073;51.994;4.448;2023-06-24T05:01:13;25.36;58.54
71291;DHT22;59073;51.994;4.448;2023-06-24T05:03:39;25.27;59.03
71291;DHT22;59073;51.994;4.448;2023-06-24T05:06:04;25.42;58.05
71291;DHT22;59073;51.994;4.448;2023-06-24T05:08:30;25.73;57.51
71291;DHT22;59073;51.994;4.448;2023-06-24T05:10:55;25.81;57.96
71291;DHT22;59073;51.994;4.448;2023-06-24T05:13:20;25.94;57.62
71291;DHT22;59073;51.994;4.448;2023-06-24T05:15:46;25.92;57.94
71291;DHT22;59073;51.994;4.448;2023-06-24T05:18:11;26.00;57.38
71291;DHT22;59073;51.994;4.448;2023-06-24T05:20:37;26.15;57.36
71291;DHT22;59073;51.994;4.448;2023-06-24T05:23:02;26.09;56.68
71291;DHT22;59073;51.994;4.448;2023-06-24T05:25:27;26.36;56.47
71291;DHT22;59073;51.994;4.448;2023-06-24T05:27:53;26.56;56.28
71291;DHT22;59073;51.994;4.448;2023-06-24T05:30:18;27.00;55.71
71291;DHT22;59073;51.994;4.448;2023-06-24T05:32:44;27.30;54.90
71291;DHT22;59073;51.994;4.448;2023-06-24T05:35:09;27.58;53.37
71291;DHT22;59073;51.994;4.448;2023-06-24T05:37:34;27.77;53.02
71291;DHT22;59073;51.994;4.448;2023-06-24T05:40:00;28.22;51.61
71291;DHT22;59073;51.994;4.448;2023-06-24T05:42:27;28.46;51.31
71291;DHT22;59073;51.994;4.448;2023-06-24T05:44:52;28.72;51.00
71291;DHT22;59073;51.994;4.448;2023-06-24T05:47:18;29.05;49.82
71291;DHT22;59073;51.994;4.448;2023-06-24T05:49:43;28.84;50.03
71291;DHT22;59073;51.994;4.448;2023-06-24T05:52:09;28.78;50.78
71291;DHT22;59073;51.994;4.448;2023-06-24T05:54:34;28.81;50.79
71291;DHT22;59073;51.994;4.448;2023-06-24T05:56:59;28.77;50.58
71291;DHT22;59073;51.994;4.448;2023-06-24T05:59:25;28.95;50.19
71291;DHT22;59073;51.994;4.448;2023-06-24T06:01:50;28.86;49.90
71291;DHT22;59073;51.994;4.448;2023-06-24T06:04:16;28.68;50.50
71291;DHT22;59073;51.994;4.448;2023-06-24T06:06:41;28.90;50.31
71291;DHT22;59073;51.994;4.448;2023-06-24T06:09:06;29.12;49.97
71291;DHT22;59073;51.994;4.448;2023-06-24T06:11:32;29.28;49.43
71291;DHT22;59073;51.994;4.448;2023-06-24T06:13:57;29.07;49.53
71291;DHT22;59073;51.994;4.448;2023-06-24T06:16:23;29.01;49.64
71291;DHT22;59073;51.994;4.448;2023-06-24T06:18:48;29.00;49.99
71291;DHT22;59073;51.994;4.448;2023-06-24T06:21:14;28.91;49.65
71291;DHT22;59073;51.994;4.448;2023-06-24T06:23:39;28.46;50.65
71291;DHT22;59073;51.994;4.448;2023-06-24T06:26:05;28.53;51.20
71291;DHT22;59073;51.994;4.448;2023-06-24T06:28:30;29.04;50.01
71291;DHT22;59073;51.994;4.448;2023-06-24T06:30:56;29.22;50.30
71291;DHT22;59073;51.994;4.448;2023-06-24T06:33:22;29.43;49.56
71291;DHT22;59073;51.994;4.448;2023-06-24T06:35:47;28.86;51.07
71291;DHT22;59073;51.994;4.448;2023-06-24T06:38:13;29.08;50.01
71291;DHT22;59073;51.994;4.448;2023-06-24T06:40:38;29.31;50.15
71291;DHT22;59073;51.994;4.448;2023-06-24T06:43:04;29.39;50.05
71291;DHT22;59073;51.994;4.448;2023-06-24T06:45:29;29.52;49.63
71291;DHT22;59073;51.994;4.448;2023-06-24T06:47:54;29.52;49.47
71291;DHT22;59073;51.994;4.448;2023-06-24T06:50:20;29.42;50.14
71291;DHT22;59073;51.994;4.448;2023-06-24T06:52:45;29.29;50.00
71291;DHT22;59073;51.994;4.448;2023-06-24T06:55:11;29.14;50.48
71291;DHT22;59073;51.994;4.448;2023-06-24T06:57:36;28.75;52.01
71291;DHT22;59073;51.994;4.448;2023-06-24T07:00:02;28.35;51.81
71291;DHT22;59073;51.994;4.448;2023-06-24T07:02:28;28.20;53.17
71291;DHT22;59073;51.994;4.448;2023-06-24T07:04:53;27.79;53.89
71291;DHT22;59073;51.994;4.448;2023-06-24T07:07:18;27.58;55.17
71291;DHT22;59073;51.994;4.448;2023-06-24T07:09:44;27.29;55.45
71291;DHT22;59073;51.994;4.448;2023-06-24T07:12:11;27.26;56.18
71291;DHT22;59073;51.994;4.448;2023-06-24T07:14:38;27.34;55.85
71291;DHT22;59073;51.994;4.448;2023-06-24T07:17:04;27.26;56.68
71291;DHT22;59073;51.994;4.448;2023-06-24T07:19:29;27.26;56.52
71291;DHT22;59073;51.994;4.448;2023-06-24T07:21:55;27.30;55.37
71291;DHT22;59073;51.994;4.448;2023-06-24T07:24:20;27.42;56.03
71291;DHT22;59073;51.994;4.448;2023-06-24T07:26:45;27.40;54.66
71291;DHT22;59073;51.994;4.448;2023-06-24T07:29:11;27.55;56.07
71291;DHT22;59073;51.994;4.448;2023-06-24T07:31:37;27.62;55.40
71291;DHT22;59073;51.994;4.448;2023-06-24T07:34:02;27.68;55.17
71291;DHT22;59073;51.994;4.448;2023-06-24T07:36:28;27.69;55.78
71291;DHT22;59073;51.994;4.448;2023-06-24T07:38:53;27.63;56.10
71291;DHT22;59073;51.994;4.448;2023-06-24T07:41:18;27.81;54.71
71291;DHT22;59073;51.994;4.448;2023-06-24T07:43:44;28.09;54.85
71291;DHT22;59073;51.994;4.448;2023-06-24T07:46:09;28.02;54.99
71291;DHT22;59073;51.994;4.448;2023-06-24T07:48:35;28.01;54.39
71291;DHT22;59073;51.994;4.448;2023-06-24T07:51:00;28.03;55.15
71291;DHT22;59073;51.994;4.448;2023-06-24T07:53:26;28.23;55.36
71291;DHT22;59073;51.994;4.448;2023-06-24T07:55:51;28.41;55.18
71291;DHT22;59073;51.994;4.448;2023-06-24T07:58:17;28.63;53.93
71291;DHT22;59073;51.994;4.448;2023-06-24T08:00:44;28.68;53.28
71291;DHT22;59073;51.994;4.448;2023-06-24T08:03:10;28.68;53.33
71291;DHT22;59073;51.994;4.448;2023-06-24T08:05:35;28.82;54.07
71291;DHT22;59073;51.994;4.448;2023-06-24T08:08:01;28.91;53.70
71291;DHT22;59073;51.994;4.448;2023-06-24T08:10:26;28.81;53.99
71291;DHT22;59073;51.994;4.448;2023-06-24T08:12:51;28.91;53.98
71291;DHT22;59073;51.994;4.448;2023-06-24T08:15:17;28.84;53.78
71291;DHT22;59073;51.994;4.448;2023-06-24T08:17:42;29.14;53.34
71291;DHT22;59073;51.994;4.448;2023-06-24T08:20:08;29.18;52.33
71291;DHT22;59073;51.994;4.448;2023-06-24T08:22:34;29.21;53.12
71291;DHT22;59073;51.994;4.448;2023-06-24T08:24:59;29.14;53.23
71291;DHT22;59073;51.994;4.448;2023-06-24T08:27:25;28.92;52.48
71291;DHT22;59073;51.994;4.448;2023-06-24T08:29:50;28.97;54.59
71291;DHT22;59073;51.994;4.448;2023-06-24T08:32:15;28.98;54.29
71291;DHT22;59073;51.994;4.448;2023-06-24T08:34:41;29.35;53.08
71291;DHT22;59073;51.994;4.448;2023-06-24T08:37:07;29.43;52.48
71291;DHT22;59073;51.994;4.448;2023-06-24T08:39:32;29.48;52.15
71291;DHT22;59073;51.994;4.448;2023-06-24T08:41:58;29.66;51.95
71291;DHT22;59073;51.994;4.448;2023-06-24T08:44:23;29.70;51.99
71291;DHT22;59073;51.994;4.448;2023-06-24T08:46:48;29.80;51.57
71291;DHT22;59073;51.994;4.448;2023-06-24T08:49:25;29.94;52.43
71291;DHT22;59073;51.994;4.448;2023-06-24T08:54:28;29.33;52.65
71291;DHT22;59073;51.994;4.448;2023-06-24T08:56:53;29.63;52.31
71291;DHT22;59073;51.994;4.448;2023-06-24T08:59:19;29.66;53.32
71291;DHT22;59073;51.994;4.448;2023-06-24T09:01:50;29.91;52.20
71291;DHT22;59073;51.994;4.448;2023-06-24T09:04:15;29.55;50.21
71291;DHT22;59073;51.994;4.448;2023-06-24T09:06:41;29.42;53.07
71291;DHT22;59073;51.994;4.448;2023-06-24T09:09:23;29.77;52.09
71291;DHT22;59073;51.994;4.448;2023-06-24T09:11:59;29.79;51.89
71291;DHT22;59073;51.994;4.448;2023-06-24T09:14:27;29.70;51.67
71291;DHT22;59073;51.994;4.448;2023-06-24T09:16:58;29.63;48.92
71291;DHT22;59073;51.994;4.448;2023-06-24T09:19:27;29.21;52.18
71291;DHT22;59073;51.994;4.448;2023-06-24T09:22:08;29.41;50.57
71291;DHT22;59073;51.994;4.448;2023-06-24T09:24:35;29.59;51.64
71291;DHT22;59073;51.994;4.448;2023-06-24T09:27:01;29.94;51.02
71291;DHT22;59073;51.994;4.448;2023-06-24T09:29:29;30.27;51.60
71291;DHT22;59073;51.994;4.448;2023-06-24T09:31:56;30.45;50.72
71291;DHT22;59073;51.994;4.448;2023-06-24T09:34:23;30.44;49.68
71291;DHT22;59073;51.994;4.448;2023-06-24T09:36:56;30.62;49.11
71291;DHT22;59073;51.994;4.448;2023-06-24T09:39:22;30.23;50.22
71291;DHT22;59073;51.994;4.448;2023-06-24T09:41:54;30.61;51.25
71291;DHT22;59073;51.994;4.448;2023-06-24T09:44:20;30.44;47.11
71291;DHT22;59073;51.994;4.448;2023-06-24T09:46:46;30.37;48.89
71291;DHT22;59073;51.994;4.448;2023-06-24T09:49:13;30.52;49.08
71291;DHT22;59073;51.994;4.448;2023-06-24T09:51:40;30.37;48.43
71291;DHT22;59073;51.994;4.448;2023-06-24T09:54:08;30.21;49.52
71291;DHT22;59073;51.994;4.448;2023-06-24T09:56:36;30.24;49.44
71291;DHT22;59073;51.994;4.448;2023-06-24T09:59:05;30.32;50.74
71291;DHT22;59073;51.994;4.448;2023-06-24T10:01:32;30.68;49.78
71291;DHT22;59073;51.994;4.448;2023-06-24T10:03:58;30.92;49.74
71291;DHT22;59073;51.994;4.448;2023-06-24T10:06:25;30.93;49.43
71291;DHT22;59073;51.994;4.448;2023-06-24T10:08:52;30.95;49.52
71291;DHT22;59073;51.994;4.448;2023-06-24T10:11:17;30.93;48.17
71291;DHT22;59073;51.994;4.448;2023-06-24T10:13:43;30.92;51.33
71291;DHT22;59073;51.994;4.448;2023-06-24T10:16:09;31.16;50.62
71291;DHT22;59073;51.994;4.448;2023-06-24T10:18:37;31.19;50.00
71291;DHT22;59073;51.994;4.448;2023-06-24T10:21:07;31.08;50.02
71291;DHT22;59073;51.994;4.448;2023-06-24T10:23:51;30.96;49.97
71291;DHT22;59073;51.994;4.448;2023-06-24T10:26:26;30.83;50.63
71291;DHT22;59073;51.994;4.448;2023-06-24T10:44:48;30.69;50.99
71291;DHT22;59073;51.994;4.448;2023-06-24T10:47:13;30.52;49.54
71291;DHT22;59073;51.994;4.448;2023-06-24T10:49:39;30.75;49.99
71291;DHT22;59073;51.994;4.448;2023-06-24T10:52:08;30.81;49.93
71291;DHT22;59073;51.994;4.448;2023-06-24T10:54:36;30.92;49.02
71291;DHT22;59073;51.994;4.448;2023-06-24T10:57:07;30.96;49.00
71291;DHT22;59073;51.994;4.448;2023-06-24T10:59:53;31.03;48.13
71291;DHT22;59073;51.994;4.448;2023-06-24T11:02:21;31.04;48.42
71291;DHT22;59073;51.994;4.448;2023-06-24T11:07:21;31.03;46.75
71291;DHT22;59073;51.994;4.448;2023-06-24T11:09:55;31.08;48.41
71291;DHT22;59073;51.994;4.448;2023-06-24T11:12:34;31.22;48.51
71291;DHT22;59073;51.994;4.448;2023-06-24T11:15:04;31.15;48.42
71291;DHT22;59073;51.994;4.448;2023-06-24T11:17:30;31.09;47.47
71291;DHT22;59073;51.994;4.448;2023-06-24T11:19:57;31.04;48.05
71291;DHT22;59073;51.994;4.448;2023-06-24T11:22:24;31.16;47.24
71291;DHT22;59073;51.994;4.448;2023-06-24T11:24:50;31.26;46.98
71291;DHT22;59073;51.994;4.448;2023-06-24T11:27:16;30.83;47.06
71291;DHT22;59073;51.994;4.448;2023-06-24T11:29:42;30.98;47.46
71291;DHT22;59073;51.994;4.448;2023-06-24T11:32:08;31.09;46.40
71291;DHT22;59073;51.994;4.448;2023-06-24T11:34:35;31.03;47.47
71291;DHT22;59073;51.994;4.448;2023-06-24T11:37:12;31.10;46.14
71291;DHT22;59073;51.994;4.448;2023-06-24T11:39:38;30.91;47.08
71291;DHT22;59073;51.994;4.448;2023-06-24T11:42:06;30.79;47.04
71291;DHT22;59073;51.994;4.448;2023-06-24T11:44:33;30.64;46.69
71291;DHT22;59073;51.994;4.448;2023-06-24T11:47:09;30.49;47.45
71291;DHT22;59073;51.994;4.448;2023-06-24T11:49:48;30.65;49.25
71291;DHT22;59073;51.994;4.448;2023-06-24T11:52:14;30.41;48.36
71291;DHT22;59073;51.994;4.448;2023-06-24T11:54:43;30.34;49.64
71291;DHT22;59073;51.994;4.448;2023-06-24T11:57:08;30.40;50.57
71291;DHT22;59073;51.994;4.448;2023-06-24T11:59:34;30.45;48.29
71291;DHT22;59073;51.994;4.448;2023-06-24T12:02:00;30.57;49.32
71291;DHT22;59073;51.994;4.448;2023-06-24T12:04:32;30.74;51.20
71291;DHT22;59073;51.994;4.448;2023-06-24T12:06:58;30.83;49.91
71291;DHT22;59073;51.994;4.448;2023-06-24T12:09:24;30.74;50.27
71291;DHT22;59073;51.994;4.448;2023-06-24T12:11:49;30.69;49.98
71291;DHT22;59073;51.994;4.448;2023-06-24T12:14:15;30.55;49.53
71291;DHT22;59073;51.994;4.448;2023-06-24T12:16:41;30.18;50.08
71291;DHT22;59073;51.994;4.448;2023-06-24T12:19:07;29.73;51.18
71291;DHT22;59073;51.994;4.448;2023-06-24T12:21:35;29.84;52.43
71291;DHT22;59073;51.994;4.448;2023-06-24T12:24:02;29.84;50.79
71291;DHT22;59073;51.994;4.448;2023-06-24T12:26:27;29.63;51.46
71291;DHT22;59073;51.994;4.448;2023-06-24T12:28:55;29.22;52.44
71291;DHT22;59073;51.994;4.448;2023-06-24T12:31:23;29.55;53.23
71291;DHT22;59073;51.994;4.448;2023-06-24T12:33:48;29.46;50.84
71291;DHT22;59073;51.994;4.448;2023-06-24T12:36:14;29.63;53.38
71291;DHT22;59073;51.994;4.448;2023-06-24T12:38:39;30.04;52.49
71291;DHT22;59073;51.994;4.448;2023-06-24T12:41:05;30.11;49.42
71291;DHT22;59073;51.994;4.448;2023-06-24T12:43:32;30.03;50.74
71291;DHT22;59073;51.994;4.448;2023-06-24T12:45:57;29.83;51.98
71291;DHT22;59073;51.994;4.448;2023-06-24T12:48:23;29.31;52.14
71291;DHT22;59073;51.994;4.448;2023-06-24T12:50:49;28.59;53.84
71291;DHT22;59073;51.994;4.448;2023-06-24T12:53:18;28.98;54.63
71291;DHT22;59073;51.994;4.448;2023-06-24T12:55:44;29.16;53.39
71291;DHT22;59073;51.994;4.448;2023-06-24T12:58:09;29.41;54.75
71291;DHT22;59073;51.994;4.448;2023-06-24T13:00:34;29.69;53.93
71291;DHT22;59073;51.994;4.448;2023-06-24T13:03:00;29.80;53.40
71291;DHT22;59073;51.994;4.448;2023-06-24T13:05:25;29.94;52.79
71291;DHT22;59073;51.994;4.448;2023-06-24T13:07:51;30.01;52.38
71291;DHT22;59073;51.994;4.448;2023-06-24T13:10:16;29.70;52.34
71291;DHT22;59073;51.994;4.448;2023-06-24T13:12:42;28.20;52.70
71291;DHT22;59073;51.994;4.448;2023-06-24T13:15:07;28.16;53.37
71291;DHT22;59073;51.994;4.448;2023-06-24T13:17:35;28.80;54.45
71291;DHT22;59073;51.994;4.448;2023-06-24T13:20:00;28.46;51.57
71291;DHT22;59073;51.994;4.448;2023-06-24T13:22:28;28.50;53.23
71291;DHT22;59073;51.994;4.448;2023-06-24T13:24:53;28.71;50.88
71291;DHT22;59073;51.994;4.448;2023-06-24T13:27:19;28.51;51.21
71291;DHT22;59073;51.994;4.448;2023-06-24T13:29:44;28.81;52.12
71291;DHT22;59073;51.994;4.448;2023-06-24T13:32:10;28.81;48.58
71291;DHT22;59073;51.994;4.448;2023-06-24T13:34:35;29.05;51.76
71291;DHT22;59073;51.994;4.448;2023-06-24T13:37:01;29.32;52.44
71291;DHT22;59073;51.994;4.448;2023-06-24T13:39:26;29.53;51.34
71291;DHT22;59073;51.994;4.448;2023-06-24T13:41:52;29.42;51.52
71291;DHT22;59073;51.994;4.448;2023-06-24T13:44:18;29.36;50.85
71291;DHT22;59073;51.994;4.448;2023-06-24T13:46:43;29.41;52.32
71291;DHT22;59073;51.994;4.448;2023-06-24T13:49:10;29.35;51.08
71291;DHT22;59073;51.994;4.448;2023-06-24T13:51:35;29.36;52.37
71291;DHT22;59073;51.994;4.448;2023-06-24T13:54:01;29.33;48.95
71291;DHT22;59073;51.994;4.448;2023-06-24T13:56:27;29.29;50.93
71291;DHT22;59073;51.994;4.448;2023-06-24T13:58:53;29.15;51.87
71291;DHT22;59073;51.994;4.448;2023-06-24T14:01:20;29.11;52.05
71291;DHT22;59073;51.994;4.448;2023-06-24T14:03:46;29.01;52.73
71291;DHT22;59073;51.994;4.448;2023-06-24T14:06:15;29.11;52.36
71291;DHT22;59073;51.994;4.448;2023-06-24T14:08:41;29.18;52.32
71291;DHT22;59073;51.994;4.448;2023-06-24T14:11:07;29.23;51.64
71291;DHT22;59073;51.994;4.448;2023-06-24T14:13:32;29.12;49.34
71291;DHT22;59073;51.994;4.448;2023-06-24T14:15:57;28.98;50.57
71291;DHT22;59073;51.994;4.448;2023-06-24T14:18:23;28.90;48.46
71291;DHT22;59073;51.994;4.448;2023-06-24T14:20:49;28.77;50.99
71291;DHT22;59073;51.994;4.448;2023-06-24T14:23:14;28.84;50.36
71291;DHT22;59073;51.994;4.448;2023-06-24T14:25:40;28.77;50.38
71291;DHT22;59073;51.994;4.448;2023-06-24T14:28:05;28.82;50.79
71291;DHT22;59073;51.994;4.448;2023-06-24T14:30:31;28.97;50.02
71291;DHT22;59073;51.994;4.448;2023-06-24T14:32:56;28.90;48.86
71291;DHT22;59073;51.994;4.448;2023-06-24T14:35:22;28.65;51.23
71291;DHT22;59073;51.994;4.448;2023-06-24T14:37:47;28.70;51.81
71291;DHT22;59073;51.994;4.448;2023-06-24T14:40:13;28.59;51.09
71291;DHT22;59073;51.994;4.448;2023-06-24T14:42:38;28.63;50.07
71291;DHT22;59073;51.994;4.448;2023-06-24T14:45:04;28.67;51.33
71291;DHT22;59073;51.994;4.448;2023-06-24T14:47:29;28.50;53.34
71291;DHT22;59073;51.994;4.448;2023-06-24T14:49:56;28.46;50.95
71291;DHT22;59073;51.994;4.448;2023-06-24T14:52:21;28.40;48.68
71291;DHT22;59073;51.994;4.448;2023-06-24T14:54:47;28.30;50.13
71291;DHT22;59073;51.994;4.448;2023-06-24T14:57:13;28.36;52.69
71291;DHT22;59073;51.994;4.448;2023-06-24T14:59:38;28.29;54.34
71291;DHT22;59073;51.994;4.448;2023-06-24T15:02:03;28.08;54.08
71291;DHT22;59073;51.994;4.448;2023-06-24T15:04:29;27.82;56.99
71291;DHT22;59073;51.994;4.448;2023-06-24T15:06:54;27.82;55.65
71291;DHT22;59073;51.994;4.448;2023-06-24T15:09:22;27.73;56.38
71291;DHT22;59073;51.994;4.448;2023-06-24T15:11:48;27.77;55.85
71291;DHT22;59073;51.994;4.448;2023-06-24T15:14:13;27.68;55.21
71291;DHT22;59073;51.994;4.448;2023-06-24T15:16:39;27.63;55.59
71291;DHT22;59073;51.994;4.448;2023-06-24T15:19:04;27.65;55.28
71291;DHT22;59073;51.994;4.448;2023-06-24T15:21:29;27.62;54.85
71291;DHT22;59073;51.994;4.448;2023-06-24T15:23:55;27.31;54.72
71291;DHT22;59073;51.994;4.448;2023-06-24T15:26:20;27.31;56.77
71291;DHT22;59073;51.994;4.448;2023-06-24T15:28:46;27.08;58.14
71291;DHT22;59073;51.994;4.448;2023-06-24T15:31:11;27.03;57.19
71291;DHT22;59073;51.994;4.448;2023-06-24T15:33:36;27.01;57.46
71291;DHT22;59073;51.994;4.448;2023-06-24T15:36:02;26.69;57.51
71291;DHT22;59073;51.994;4.448;2023-06-24T15:38:27;26.48;58.52
71291;DHT22;59073;51.994;4.448;2023-06-24T15:40:53;26.70;58.17
71291;DHT22;59073;51.994;4.448;2023-06-24T15:43:18;26.83;57.06
71291;DHT22;59073;51.994;4.448;2023-06-24T15:45:44;26.72;54.92
71291;DHT22;59073;51.994;4.448;2023-06-24T15:48:09;26.78;56.50
71291;DHT22;59073;51.994;4.448;2023-06-24T15:50:35;26.57;54.85
71291;DHT22;59073;51.994;4.448;2023-06-24T15:53:00;26.53;55.10
71291;DHT22;59073;51.994;4.448;2023-06-24T15:55:25;26.46;53.74